Time;durP1;ratioP1;P1;durP2;ratioP2;P2;SDS_P1;SDS_P2;PMS_P1;PMS_P2;Temp;Humidity;BMP_temperature;BMP_pressure;BME280_temperature;BME280_humidity;BME280_pressure;Samples;Min_cycle;Max_cycle;Signal;HPM_P1;HPM_P2
2022/08/18 00:01:59;;;;;;;38.10;28.92;;;;;;;18.68;100.00;101178.91;5010645;28;20038;-65
2022/08/18 00:04:25;;;;;;;45.42;33.67;;;;;;;18.67;100.00;101176.44;5010750;28;20469;-65
2022/08/18 00:06:50;;;;;;;36.83;27.20;;;;;;;18.66;100.00;101175.63;4993051;28;20029;-66
2022/08/18 00:09:15;;;;;;;39.75;29.17;;;;;;;18.69;100.00;101172.44;5010508;28;20065;-65
2022/08/18 00:11:42;;;;;;;41.65;30.02;;;;;;;18.70;100.00;101170.56;5010559;28;20042;-65
2022/08/18 00:14:18;;;;;;;41.83;31.10;;;;;;;18.47;100.00;101133.66;5009964;28;20030;-65
2022/08/18 00:16:44;;;;;;;40.58;30.13;;;;;;;18.68;100.00;101178.91;5009610;28;20389;-65
2022/08/18 00:19:09;;;;;;;39.30;26.02;;;;;;;18.69;100.00;101182.44;5010496;28;20052;-65
2022/08/18 00:21:35;;;;;;;39.97;28.15;;;;;;;18.71;100.00;101180.31;5010002;28;20034;-66
2022/08/18 00:24:01;;;;;;;40.03;29.38;;;;;;;18.71;100.00;101177.63;5010449;28;20026;-65
2022/08/18 00:26:26;;;;;;;45.83;29.83;;;;;;;18.69;100.00;101185.94;5009875;28;20084;-65
2022/08/18 00:28:51;;;;;;;38.03;27.83;;;;;;;18.71;100.00;101186.53;5010109;28;20061;-66
2022/08/18 00:31:17;;;;;;;37.83;27.80;;;;;;;18.71;100.00;101183.84;5010232;28;20026;-65
2022/08/18 00:33:42;;;;;;;41.53;29.42;;;;;;;18.74;100.00;101186.03;5010144;28;20037;-66
2022/08/18 00:36:10;;;;;;;38.70;27.52;;;;;;;18.71;100.00;101191.94;5009595;28;20521;-65
2022/08/18 00:38:35;;;;;;;39.05;27.70;;;;;;;18.72;100.00;101187.34;5010171;28;20034;-65
2022/08/18 00:41:01;;;;;;;35.35;27.42;;;;;;;18.71;100.00;101189.22;5010015;28;20507;-65
2022/08/18 00:43:35;;;;;;;36.28;25.75;;;;;;;18.72;100.00;101200.84;5009997;28;20461;-66
2022/08/18 00:46:01;;;;;;;39.92;29.50;;;;;;;18.69;100.00;101201.34;5009949;28;20040;-65
2022/08/18 00:48:26;;;;;;;33.80;25.30;;;;;;;18.68;100.00;101199.69;5009930;28;20029;-65
2022/08/18 00:50:59;;;;;;;37.40;24.58;;;;;;;18.69;100.00;101204.88;5009766;28;20033;-65
2022/08/18 00:53:44;;;;;;;37.92;26.67;;;;;;;18.68;100.00;101208.63;5009492;28;20033;-65
2022/08/18 00:56:24;;;;;;;34.40;24.95;;;;;;;18.67;100.00;101198.88;5009773;28;20033;-65
2022/08/18 00:58:59;;;;;;;37.28;27.08;;;;;;;18.68;100.00;101208.63;5009873;28;20061;-65
2022/08/18 01:01:29;;;;;;;39.55;28.33;;;;;;;18.67;100.00;101212.38;5009838;28;20029;-65
2022/08/18 01:04:00;;;;;;;35.72;26.70;;;;;;;18.65;100.00;101201.00;5009701;28;20477;-65
2022/08/18 01:06:36;;;;;;;36.92;26.25;;;;;;;18.69;100.00;101198.66;5009724;28;20034;-66
2022/08/18 01:09:02;;;;;;;35.28;25.00;;;;;;;18.67;100.00;101206.97;5009628;28;20088;-65
2022/08/18 01:11:28;;;;;;;35.85;27.48;;;;;;;18.62;100.00;101212.28;5009657;28;21420;-65
2022/08/18 01:13:54;;;;;;;34.63;24.27;;;;;;;18.58;100.00;101208.44;5009159;28;20029;-66
2022/08/18 01:21:54;;;;;;;33.55;22.02;;;;;;;18.54;100.00;101196.47;5009719;28;20115;-65
2022/08/18 01:27:16;;;;;;;33.97;22.73;;;;;;;18.52;100.00;101204.84;5009726;28;20449;-65
2022/08/18 01:29:43;;;;;;;29.95;20.73;;;;;;;18.48;100.00;101197.44;5009326;28;20033;-65
2022/08/18 01:32:11;;;;;;;34.47;23.90;;;;;;;18.53;100.00;101202.94;5009456;28;20538;-65
2022/08/18 01:34:37;;;;;;;29.45;21.17;;;;;;;18.53;100.00;101194.84;5008643;28;20042;-66
2022/08/18 01:37:04;;;;;;;32.35;21.85;;;;;;;18.49;100.00;101190.97;5009282;28;20136;-65
2022/08/18 01:39:30;;;;;;;32.10;20.25;;;;;;;18.51;100.00;101196.94;5012350;28;20041;-65
2022/08/18 01:41:55;;;;;;;32.75;20.83;;;;;;;18.49;100.00;101202.59;5013264;28;20393;-65
2022/08/18 01:44:21;;;;;;;32.03;20.75;;;;;;;18.50;100.00;101196.13;5013257;28;20037;-65
2022/08/18 01:46:47;;;;;;;31.10;21.50;;;;;;;18.47;100.00;101199.31;5013215;28;20049;-65
2022/08/18 01:49:13;;;;;;;29.73;21.02;;;;;;;18.45;100.00;101198.75;5013268;28;20030;-65
2022/08/18 01:51:41;;;;;;;28.42;20.98;;;;;;;18.45;100.00;101206.03;5013334;28;20517;-65
2022/08/18 01:54:12;;;;;;;30.58;20.25;;;;;;;18.44;100.00;101204.38;5013156;28;20585;-65
2022/08/18 01:56:39;;;;;;;30.67;21.70;;;;;;;18.39;100.00;101199.69;5012700;28;20106;-65
2022/08/18 01:59:09;;;;;;;31.45;21.60;;;;;;;18.40;100.00;101195.94;5013148;28;20582;-70
2022/08/18 02:01:38;;;;;;;32.78;20.63;;;;;;;18.39;100.00;101196.97;5012971;28;20021;-69
2022/08/18 02:04:05;;;;;;;32.30;22.30;;;;;;;18.40;100.00;101193.25;5012971;28;20093;-69
2022/08/18 02:06:32;;;;;;;34.00;21.05;;;;;;;18.39;100.00;101200.53;5012907;28;20022;-70
2022/08/18 02:08:57;;;;;;;34.97;21.52;;;;;;;18.39;100.00;101199.69;5012780;28;20026;-70
2022/08/18 02:11:23;;;;;;;32.55;23.25;;;;;;;18.38;100.00;101189.94;5012817;28;20556;-69
2022/08/18 02:13:48;;;;;;;32.75;22.08;;;;;;;18.36;100.00;101190.19;5012467;28;20392;-69
2022/08/18 02:16:14;;;;;;;31.35;22.33;;;;;;;18.34;100.00;101186.09;5012614;28;20057;-69
2022/08/18 02:18:41;;;;;;;31.52;21.45;;;;;;;18.35;100.00;101196.66;5012642;28;20022;-70
2022/08/18 02:21:18;;;;;;;30.08;21.13;;;;;;;18.33;100.00;101192.56;5012651;28;20060;-69
2022/08/18 02:23:44;;;;;;;30.95;21.75;;;;;;;18.30;100.00;101204.66;5012540;28;20030;-69
2022/08/18 02:26:13;;;;;;;34.38;23.15;;;;;;;18.24;100.00;101205.63;5012530;28;20572;-69
2022/08/18 02:28:40;;;;;;;32.05;21.90;;;;;;;18.23;100.00;101198.56;5012012;28;20092;-69
2022/08/18 02:31:11;;;;;;;31.25;21.77;;;;;;;18.21;100.00;101197.16;5012294;28;20026;-70
2022/08/18 02:33:36;;;;;;;31.58;20.58;;;;;;;18.15;100.00;101198.94;5012394;28;20536;-69
2022/08/18 02:36:03;;;;;;;34.33;22.23;;;;;;;18.09;100.00;101197.19;5011838;28;20070;-69
2022/08/18 02:38:29;;;;;;;31.83;22.48;;;;;;;18.04;100.00;101205.19;5012326;28;20049;-69
2022/08/18 02:40:56;;;;;;;30.60;22.63;;;;;;;17.99;100.00;101200.50;5012319;28;20022;-69
2022/08/18 02:43:22;;;;;;;31.52;21.75;;;;;;;17.93;100.00;101204.97;5011950;28;20137;-71
2022/08/18 02:45:48;;;;;;;31.95;23.42;;;;;;;17.91;100.00;101201.69;5011514;28;20029;-70
2022/08/18 02:48:13;;;;;;;33.25;22.38;;;;;;;17.89;100.00;101208.38;5012032;28;20470;-70
2022/08/18 02:50:48;;;;;;;32.28;21.42;;;;;;;17.82;100.00;101208.50;5011409;28;20096;-70
2022/08/18 02:53:23;;;;;;;30.48;20.90;;;;;;;17.77;100.00;101205.66;5011795;28;20038;-70
2022/08/18 02:55:49;;;;;;;36.45;25.85;;;;;;;17.71;100.00;101215.53;5011954;28;20030;-70
2022/08/18 02:58:15;;;;;;;32.33;24.40;;;;;;;17.69;100.00;101214.94;5012027;28;20036;-70
2022/08/18 03:00:41;;;;;;;33.88;23.20;;;;;;;17.66;100.00;101218.09;5011398;28;20129;-70
2022/08/18 03:03:07;;;;;;;33.63;22.65;;;;;;;17.63;100.00;101221.28;5011939;28;20034;-70
2022/08/18 03:05:33;;;;;;;32.90;23.30;;;;;;;17.60;100.00;101218.22;5011973;28;20052;-70
2022/08/18 03:07:59;;;;;;;35.58;22.40;;;;;;;17.57;100.00;101216.78;5011842;28;20904;-70
2022/08/18 03:10:24;;;;;;;34.97;22.83;;;;;;;17.56;100.00;101211.66;5011524;28;20033;-70
2022/08/18 03:12:50;;;;;;;32.70;22.58;;;;;;;17.53;100.00;101213.75;5011711;28;20045;-70
2022/08/18 03:15:15;;;;;;;33.53;23.38;;;;;;;17.53;100.00;101219.16;5011627;28;20072;-70
2022/08/18 03:17:41;;;;;;;32.47;22.25;;;;;;;17.51;100.00;101217.75;5011551;28;20637;-70
2022/08/18 03:20:06;;;;;;;36.03;24.05;;;;;;;17.48;100.00;101210.13;5011465;28;20469;-70
2022/08/18 03:22:32;;;;;;;32.47;21.42;;;;;;;17.50;100.00;101216.09;5011535;28;20065;-70
2022/08/18 03:24:58;;;;;;;34.22;23.88;;;;;;;17.49;100.00;101217.16;5011475;28;20405;-70
2022/08/18 03:27:24;;;;;;;34.63;23.77;;;;;;;17.48;100.00;101219.03;5011415;28;20029;-70
2022/08/18 03:29:50;;;;;;;36.75;25.50;;;;;;;17.47;100.00;101220.06;4993618;28;20045;-70
2022/08/18 03:32:15;;;;;;;34.75;20.45;;;;;;;17.47;100.00;101228.16;5011360;28;20072;-70
2022/08/18 03:34:41;;;;;;;34.53;22.65;;;;;;;17.46;100.00;101220.31;5011086;28;20065;-70
2022/08/18 03:37:08;;;;;;;39.50;26.52;;;;;;;17.45;100.00;101224.09;5011115;28;20085;-70
2022/08/18 03:39:33;;;;;;;33.33;24.38;;;;;;;17.44;100.00;101225.94;5011261;28;20460;-70
2022/08/18 03:41:59;;;;;;;32.03;20.23;;;;;;;17.30;100.00;101217.25;5011193;28;20065;-70
2022/08/18 03:44:25;;;;;;;26.23;17.70;;;;;;;17.23;100.00;101224.63;5011078;28;20366;-70
2022/08/18 03:46:50;;;;;;;32.40;22.00;;;;;;;17.20;100.00;101226.97;5010689;28;20029;-71
2022/08/18 03:49:17;;;;;;;31.17;21.80;;;;;;;17.22;100.00;101227.56;5010197;28;20426;-70
2022/08/18 03:51:47;;;;;;;33.38;22.92;;;;;;;17.23;100.00;101230.00;5010951;28;20037;-70
2022/08/18 03:54:15;;;;;;;33.17;23.08;;;;;;;17.24;100.00;101226.28;5010849;28;20087;-70
2022/08/18 03:56:42;;;;;;;30.80;20.13;;;;;;;17.27;100.00;101227.69;5010824;28;20033;-70
2022/08/18 03:59:18;;;;;;;31.35;21.73;;;;;;;17.21;100.00;101209.72;5010859;28;20029;-64
2022/08/18 04:01:44;;;;;;;32.22;20.27;;;;;;;17.27;100.00;101217.72;5010001;28;20025;-65
2022/08/18 04:04:14;;;;;;;30.85;21.80;;;;;;;17.25;100.00;101210.91;5010867;28;20107;-65
2022/08/18 04:06:49;;;;;;;30.02;22.23;;;;;;;17.27;100.00;101206.94;5010482;28;20063;-65
2022/08/18 04:09:16;;;;;;;32.15;22.58;;;;;;;17.27;100.00;101209.63;5010475;28;20041;-65
2022/08/18 04:11:43;;;;;;;32.40;20.95;;;;;;;17.27;100.00;101214.22;5010561;28;20784;-65
2022/08/18 04:14:15;;;;;;;38.88;24.35;;;;;;;17.27;100.00;101212.31;5010636;28;20469;-65
2022/08/18 04:16:41;;;;;;;32.08;22.80;;;;;;;17.29;100.00;101212.91;5010583;28;20495;-65
2022/08/18 04:19:07;;;;;;;32.60;23.67;;;;;;;17.31;100.00;101226.16;5010284;28;20041;-65
2022/08/18 04:21:38;;;;;;;34.67;21.77;;;;;;;17.33;100.00;101220.53;5010405;28;20026;-65
2022/08/18 04:24:06;;;;;;;36.63;24.38;;;;;;;17.36;100.00;101222.78;5010260;28;20030;-65
2022/08/18 04:26:36;;;;;;;37.50;24.95;;;;;;;17.35;100.00;101224.66;5010330;28;20066;-64
2022/08/18 04:29:04;;;;;;;35.30;23.30;;;;;;;17.41;100.00;101226.41;5010246;28;20034;-65
2022/08/18 04:31:30;;;;;;;36.08;25.70;;;;;;;17.45;100.00;101226.78;5010199;28;20914;-65
2022/08/18 04:33:58;;;;;;;38.42;25.98;;;;;;;17.44;100.00;101223.22;5010130;28;20022;-65
2022/08/18 04:36:25;;;;;;;36.45;25.92;;;;;;;17.46;100.00;101221.13;5009744;28;20068;-65
2022/08/18 04:38:50;;;;;;;38.97;27.38;;;;;;;17.49;100.00;101222.53;5010024;28;20041;-65
2022/08/18 04:41:16;;;;;;;39.58;26.10;;;;;;;17.50;100.00;101216.09;5009945;28;20404;-65
2022/08/18 04:43:41;;;;;;;38.22;26.25;;;;;;;17.51;100.00;101218.56;5009846;28;20040;-65
2022/08/18 04:46:08;;;;;;;38.05;25.85;;;;;;;17.53;100.00;101223.72;5009808;28;20074;-66
2022/08/18 04:48:36;;;;;;;36.15;26.60;;;;;;;17.56;100.00;101225.13;5009855;28;20037;-65
2022/08/18 04:51:11;;;;;;;37.85;26.17;;;;;;;17.57;100.00;101230.28;5009297;28;20133;-66
2022/08/18 04:53:43;;;;;;;37.42;26.13;;;;;;;17.58;100.00;101233.78;5009282;28;20112;-66
2022/08/18 04:56:24;;;;;;;35.30;25.80;;;;;;;17.61;100.00;101236.88;5009709;28;20033;-66
2022/08/18 04:59:10;;;;;;;40.53;28.02;;;;;;;17.62;100.00;101237.69;5009721;28;20068;-66
2022/08/18 05:01:44;;;;;;;35.83;26.92;;;;;;;17.64;100.00;101244.47;5009617;28;20557;-66
2022/08/18 05:04:13;;;;;;;39.00;28.33;;;;;;;17.57;100.00;101230.28;5009345;28;20052;-66
2022/08/18 05:06:42;;;;;;;41.53;28.90;;;;;;;17.62;100.00;101245.78;5009388;28;20084;-66
2022/08/18 05:09:09;;;;;;;42.13;30.27;;;;;;;17.62;100.00;101235.81;5009184;28;20034;-66
2022/08/18 05:11:36;;;;;;;39.78;28.05;;;;;;;17.65;100.00;101242.59;5009403;28;20044;-66
2022/08/18 05:14:05;;;;;;;43.75;28.83;;;;;;;17.66;100.00;101246.97;5009223;28;20085;-66
2022/08/18 05:16:35;;;;;;;42.17;28.23;;;;;;;17.65;100.00;101246.13;5009322;28;20109;-66
2022/08/18 05:19:10;;;;;;;42.78;28.88;;;;;;;17.65;100.00;101243.41;5009542;28;20469;-66
2022/08/18 05:21:36;;;;;;;40.92;26.50;;;;;;;17.69;100.00;101247.31;5009056;28;20444;-66
2022/08/18 05:24:04;;;;;;;39.13;29.15;;;;;;;17.70;100.00;101237.31;5009218;28;20096;-64
2022/08/18 05:26:30;;;;;;;40.20;29.27;;;;;;;17.71;100.00;101241.66;5009312;28;20068;-64
2022/08/18 05:28:56;;;;;;;42.45;28.63;;;;;;;17.74;100.00;101241.22;5009387;28;20034;-64
2022/08/18 05:31:24;;;;;;;40.70;28.17;;;;;;;17.75;100.00;101240.97;5009496;28;20041;-63
2022/08/18 05:33:52;;;;;;;43.05;30.38;;;;;;;17.82;100.00;101248.16;5009437;28;20386;-63
2022/08/18 05:36:23;;;;;;;41.38;26.25;;;;;;;17.84;100.00;101244.19;5009072;28;20112;-63
2022/08/18 05:38:57;;;;;;;38.25;25.50;;;;;;;17.89;100.00;101249.69;5009407;28;20029;-63
2022/08/18 05:41:32;;;;;;;42.40;27.92;;;;;;;17.93;100.00;101255.44;5009242;28;20026;-63
2022/08/18 05:43:59;;;;;;;38.20;25.42;;;;;;;17.93;100.00;101260.81;5009136;28;20541;-64
2022/08/18 05:46:53;;;;;;;36.08;25.05;;;;;;;17.96;100.00;101260.34;5009173;28;20068;-63
2022/08/18 05:49:19;;;;;;;39.78;27.23;;;;;;;17.98;100.00;101254.72;5009153;28;20427;-64
2022/08/18 05:51:48;;;;;;;38.55;24.33;;;;;;;17.96;100.00;101261.16;5009290;28;20480;-64
2022/08/18 05:57:06;;;;;;;37.45;26.50;;;;;;;17.96;100.00;101258.47;5009468;28;20095;-64
2022/08/18 05:59:36;;;;;;;36.92;25.90;;;;;;;18.00;100.00;101263.38;5008887;28;20030;-64
2022/08/18 06:02:14;;;;;;;38.28;25.15;;;;;;;18.02;100.00;101263.97;5008890;28;20057;-64
2022/08/18 06:04:40;;;;;;;40.97;26.33;;;;;;;18.05;100.00;101261.66;5009051;28;20033;-64
2022/08/18 06:07:10;;;;;;;44.58;28.67;;;;;;;18.08;100.00;101260.34;5009005;28;20473;-64
2022/08/18 06:09:46;;;;;;;36.97;25.52;;;;;;;18.15;100.00;101264.53;5009048;28;20114;-64
2022/08/18 06:12:19;;;;;;;34.88;23.98;;;;;;;18.18;100.00;101263.25;5008937;28;20026;-64
2022/08/18 06:14:45;;;;;;;34.72;24.73;;;;;;;18.23;100.00;101259.84;5008947;28;20089;-64
2022/08/18 06:17:44;;;;;;;34.45;24.98;;;;;;;18.29;100.00;101265.13;5008998;28;20527;-64
2022/08/18 06:20:26;;;;;;;35.42;25.15;;;;;;;18.32;100.00;101269.22;5008880;28;20556;-64
2022/08/18 06:23:32;;;;;;;36.97;25.65;;;;;;;18.35;100.00;101264.16;5008886;28;20034;-64
2022/08/18 06:26:33;;;;;;;35.95;23.35;;;;;;;18.42;100.00;101282.94;4969855;28;20063;-64
2022/08/18 06:29:06;;;;;;;34.28;25.00;;;;;;;18.43;100.00;101281.06;5009757;28;20119;-65
2022/08/18 06:31:56;;;;;;;35.53;22.63;;;;;;;18.48;100.00;101281.19;5011752;28;20164;-65
2022/08/18 06:34:54;;;;;;;36.78;24.77;;;;;;;18.54;100.00;101280.22;5011885;28;20038;-65
2022/08/18 06:38:37;;;;;;;30.33;23.10;;;;;;;18.55;100.00;101277.28;5012054;28;20421;-65
2022/08/18 06:40:25;;;;;;;31.05;21.40;;;;;;;18.69;100.00;101287.81;5012111;28;20038;-65
2022/08/18 06:42:50;;;;;;;29.30;19.20;;;;;;;18.70;100.00;101290.25;5012271;28;20030;-65
2022/08/18 06:45:18;;;;;;;30.05;19.85;;;;;;;18.70;100.00;101284.03;5012176;28;20041;-65
2022/08/18 06:48:08;;;;;;;32.08;20.33;;;;;;;18.76;100.00;101288.53;4994304;28;20543;-65
2022/08/18 06:50:46;;;;;;;29.67;19.75;;;;;;;18.77;100.00;101285.56;5012071;28;20036;-65
2022/08/18 06:53:11;;;;;;;25.10;16.27;;;;;;;18.75;100.00;101289.56;5012195;28;20022;-65
2022/08/18 06:55:46;;;;;;;30.92;17.80;;;;;;;18.82;100.00;101292.97;5011886;28;20049;-65
2022/08/18 06:58:14;;;;;;;26.20;17.92;;;;;;;18.91;100.00;101291.50;5012043;28;20026;-65
2022/08/18 07:00:53;;;;;;;26.52;19.42;;;;;;;19.05;100.00;101297.47;5011886;28;20026;-65
2022/08/18 07:03:23;;;;;;;25.60;16.67;;;;;;;19.09;100.00;101276.97;5011773;28;20057;-65
2022/08/18 07:06:17;;;;;;;27.10;18.30;;;;;;;19.09;100.00;101292.38;5011706;28;20048;-65
2022/08/18 07:08:44;;;;;;;30.45;20.42;;;;;;;19.02;100.00;101298.75;5011602;28;20025;-65
2022/08/18 07:11:31;;;;;;;29.55;19.17;;;;;;;18.95;100.00;101303.50;5011692;28;20484;-65
2022/08/18 07:14:20;;;;;;;30.60;19.02;;;;;;;18.94;100.00;101298.31;5011566;28;20025;-65
2022/08/18 07:16:46;;;;;;;29.25;19.95;;;;;;;18.98;100.00;101299.47;4999560;28;20042;-65
2022/08/18 07:19:15;;;;;;;25.95;17.33;;;;;;;18.99;100.00;101298.41;5011425;28;20442;-65
2022/08/18 07:21:42;;;;;;;32.30;20.50;;;;;;;19.04;100.00;101299.31;5011412;28;20106;-65
2022/08/18 07:24:12;;;;;;;33.22;17.80;;;;;;;19.07;100.00;101303.41;5010956;28;20026;-65
2022/08/18 07:27:03;;;;;;;27.73;19.13;;;;;;;19.14;100.00;101300.59;5011396;28;20025;-65
2022/08/18 07:29:31;;;;;;;27.38;18.23;;;;;;;19.29;100.00;101297.34;5011081;28;20072;-66
2022/08/18 07:32:02;;;;;;;26.95;18.40;;;;;;;19.48;100.00;101304.97;5010989;28;20476;-65
2022/08/18 07:34:40;;;;;;;26.77;17.52;;;;;;;19.55;100.00;101306.72;5010992;28;20034;-66
2022/08/18 07:37:23;;;;;;;31.55;18.80;;;;;;;19.62;100.00;101301.94;5009948;28;20108;-65
2022/08/18 07:40:01;;;;;;;32.58;20.00;;;;;;;19.74;100.00;101302.72;5011033;28;20014;-66
2022/08/18 07:42:45;;;;;;;26.50;17.75;;;;;;;19.93;100.00;101303.25;5011125;28;20030;-66
2022/08/18 07:45:30;;;;;;;26.08;18.58;;;;;;;19.94;100.00;101310.34;5011018;28;20464;-65
2022/08/18 07:48:13;;;;;;;26.15;17.70;;;;;;;20.05;100.00;101312.13;5010572;28;20034;-65
2022/08/18 07:50:51;;;;;;;29.05;18.83;;;;;;;20.20;99.84;101316.09;5010855;28;20056;-66
2022/08/18 07:53:38;;;;;;;26.65;18.67;;;;;;;20.24;100.00;101311.84;5011038;28;20030;-66
2022/08/18 07:56:18;;;;;;;25.50;16.90;;;;;;;20.35;100.00;101311.72;5010714;28;20401;-70
2022/08/18 07:58:54;;;;;;;29.55;17.27;;;;;;;20.34;98.30;101307.38;5010677;28;20029;-70
2022/08/18 08:01:20;;;;;;;23.77;15.43;;;;;;;20.33;97.29;101304.91;5010836;28;20470;-71
2022/08/18 08:04:01;;;;;;;24.40;16.75;;;;;;;20.32;98.05;101312.22;5010590;28;20057;-71
2022/08/18 08:06:37;;;;;;;23.65;16.00;;;;;;;20.31;98.86;101310.59;5010794;28;20077;-71
2022/08/18 08:09:28;;;;;;;27.50;18.13;;;;;;;20.33;98.78;101311.16;5010470;28;20018;-70
2022/08/18 08:11:57;;;;;;;24.65;17.05;;;;;;;20.45;97.22;101304.81;5010627;28;20503;-70
2022/08/18 08:14:40;;;;;;;25.85;16.70;;;;;;;20.91;97.23;101303.50;5010557;28;20091;-70
2022/08/18 08:17:12;;;;;;;24.83;17.00;;;;;;;22.61;88.12;101306.44;5006888;28;20026;-72
2022/08/18 08:19:52;;;;;;;22.40;15.57;;;;;;;23.74;82.67;101301.22;5006095;28;20022;-71
2022/08/18 08:22:30;;;;;;;24.10;16.45;;;;;;;24.64;79.74;101306.69;5006190;28;20034;-70
2022/08/18 08:25:01;;;;;;;22.67;15.15;;;;;;;24.53;72.89;101307.03;5006332;28;20109;-70
2022/08/18 08:27:27;;;;;;;23.35;13.90;;;;;;;23.53;76.33;101308.53;5006256;28;20524;-71
2022/08/18 08:30:28;;;;;;;23.00;15.47;;;;;;;22.82;79.66;101303.75;5006258;28;20032;-71
2022/08/18 08:32:59;;;;;;;24.77;15.70;;;;;;;22.16;82.28;101317.84;4945632;29;21680;-71
2022/08/18 08:35:40;;;;;;;20.77;14.30;;;;;;;21.78;84.47;101317.06;4995476;28;20136;-70
2022/08/18 08:38:13;;;;;;;22.38;14.07;;;;;;;21.56;86.15;101323.41;5005920;28;20116;-70
2022/08/18 08:40:46;;;;;;;22.25;13.63;;;;;;;21.32;86.17;101316.63;5006167;28;20504;-70
2022/08/18 08:43:20;;;;;;;22.63;13.90;;;;;;;20.98;88.08;101304.09;5005686;28;20033;-70
2022/08/18 08:46:11;;;;;;;22.27;15.70;;;;;;;20.89;90.59;101316.47;5005283;28;20108;-69
2022/08/18 08:49:08;;;;;;;20.53;15.50;;;;;;;20.97;91.27;101317.91;5005111;28;20083;-68
2022/08/18 08:51:38;;;;;;;22.80;14.77;;;;;;;21.73;86.71;101317.03;4975255;28;20042;-69
2022/08/18 08:54:16;;;;;;;26.10;15.38;;;;;;;21.91;86.58;101316.63;5009869;28;20033;-69
2022/08/18 08:56:46;;;;;;;24.80;15.25;;;;;;;21.87;85.91;101318.19;5009766;28;20029;-65
2022/08/18 08:59:15;;;;;;;20.75;13.35;;;;;;;21.84;86.58;101326.88;5009665;28;20025;-65
2022/08/18 09:02:09;;;;;;;18.98;12.88;;;;;;;21.78;87.73;101328.75;5009719;28;20018;-65
2022/08/18 09:04:56;;;;;;;20.00;13.07;;;;;;;21.79;87.06;101319.50;5009787;28;20038;-65
2022/08/18 09:08:01;;;;;;;19.05;12.15;;;;;;;21.67;86.24;101316.97;5009621;28;20021;-65
2022/08/18 09:10:58;;;;;;;19.25;12.32;;;;;;;21.57;87.34;101325.03;5009595;28;20474;-65
2022/08/18 09:13:38;;;;;;;18.92;11.95;;;;;;;21.45;88.74;101322.47;5009650;28;20084;-65
2022/08/18 09:16:19;;;;;;;24.08;13.23;;;;;;;21.58;85.77;101331.28;5009551;28;20061;-65
2022/08/18 09:18:54;;;;;;;19.70;12.32;;;;;;;21.74;86.47;101330.31;5009522;28;20026;-65
2022/08/18 09:21:57;;;;;;;18.30;11.40;;;;;;;21.74;86.06;101327.59;5009436;28;20029;-65
2022/08/18 09:24:28;;;;;;;18.02;11.13;;;;;;;21.67;85.50;101325.13;5009541;28;20033;-65
2022/08/18 09:27:03;;;;;;;20.58;12.13;;;;;;;21.66;87.60;101326.19;5009527;28;20026;-65
2022/08/18 09:29:37;;;;;;;15.27;10.15;;;;;;;21.65;87.55;101332.72;5009123;28;20140;-65
2022/08/18 09:32:36;;;;;;;17.27;10.60;;;;;;;21.66;86.85;101326.19;5009213;28;20052;-65
2022/08/18 09:35:18;;;;;;;19.00;10.52;;;;;;;21.70;86.36;101321.06;5009116;28;20042;-65
2022/08/18 09:43:36;;;;;;;14.48;8.52;;;;;;;21.72;85.12;101308.06;5009158;28;20272;-65
2022/08/18 09:46:04;;;;;;;13.63;8.63;;;;;;;21.63;84.25;101309.59;5009164;28;20018;-65
2022/08/18 09:48:43;;;;;;;16.17;9.98;;;;;;;21.61;nan;101315.31;5008854;28;20037;-65
2022/08/18 09:51:14;;;;;;;16.00;8.25;;;;;;;21.62;84.09;101329.69;5009173;28;20030;-65
2022/08/18 09:53:45;;;;;;;15.80;9.05;;;;;;;21.61;83.01;101322.63;5009399;28;20055;-65
2022/08/18 09:56:16;;;;;;;12.27;7.82;;;;;;;21.63;83.01;101328.63;5009283;28;20113;-65
2022/08/18 09:59:01;;;;;;;12.75;7.90;;;;;;;21.71;82.71;101322.69;5009312;28;20030;-65
2022/08/18 10:01:30;;;;;;;11.48;6.68;;;;;;;21.79;82.84;101322.22;5013100;28;20040;-66
2022/08/18 10:04:14;;;;;;;10.77;6.72;;;;;;;21.95;82.26;101327.75;5012877;28;20025;-65
2022/08/18 10:06:44;;;;;;;12.00;7.40;;;;;;;22.06;79.52;101327.59;5012370;28;20111;-65
2022/08/18 10:09:27;;;;;;;12.65;8.30;;;;;;;22.18;81.66;101324.66;5012771;28;20028;-65
2022/08/18 10:12:24;;;;;;;18.98;11.20;;;;;;;22.21;80.48;101321.44;5012676;28;20108;-65
2022/08/18 10:15:20;;;;;;;15.32;7.70;;;;;;;22.10;81.86;101317.81;5012745;28;20018;-65
2022/08/18 10:18:14;;;;;;;15.65;8.10;;;;;;;22.01;80.80;101310.44;5012498;28;20037;-65
2022/08/18 10:21:06;;;;;;;14.70;8.32;;;;;;;21.94;82.99;101304.41;5012331;28;20421;-65
2022/08/18 10:23:46;;;;;;;13.50;8.57;;;;;;;21.94;84.50;101305.22;5012682;28;20496;-65
2022/08/18 10:26:30;;;;;;;16.05;8.95;;;;;;;21.98;83.32;101311.78;5012634;28;20034;-65
2022/08/18 10:29:04;;;;;;;13.85;8.40;;;;;;;22.02;82.57;101306.63;5012588;28;20053;-65
2022/08/18 10:31:49;;;;;;;17.20;8.95;;;;;;;22.16;82.02;101309.69;5012337;28;20030;-65
2022/08/18 10:34:36;;;;;;;18.20;10.80;;;;;;;22.35;80.86;101312.81;5012258;28;20026;-65
2022/08/18 10:37:10;;;;;;;15.45;9.20;;;;;;;22.52;79.66;101305.28;5012107;28;20073;-65
2022/08/18 10:39:39;;;;;;;14.18;9.73;;;;;;;22.75;80.33;101307.56;5012231;28;20417;-64
2022/08/18 10:42:27;;;;;;;15.63;8.85;;;;;;;23.06;76.24;101302.22;5012058;28;20063;-64
2022/08/18 10:45:06;;;;;;;14.85;8.60;;;;;;;23.07;74.49;101292.16;5012187;28;20022;-64
2022/08/18 10:47:32;;;;;;;15.20;10.07;;;;;;;22.98;73.94;101302.75;5012009;28;20036;-64
2022/08/18 10:50:01;;;;;;;14.52;7.88;;;;;;;22.99;75.41;101301.66;5012017;28;20471;-64
2022/08/18 10:52:57;;;;;;;20.08;9.48;;;;;;;23.22;77.00;101307.69;5012074;28;20110;-65
2022/08/18 10:55:57;;;;;;;18.25;10.90;;;;;;;23.28;75.41;101301.97;5011988;28;20026;-65
2022/08/18 10:58:47;;;;;;;14.50;9.38;;;;;;;23.45;74.26;101307.19;4981349;28;20038;-65
2022/08/18 11:01:19;;;;;;;14.43;8.82;;;;;;;23.38;71.94;101304.72;5011845;28;20037;-65
2022/08/18 11:04:08;;;;;;;14.10;9.38;;;;;;;23.47;73.94;101304.97;5011446;28;20030;-64
2022/08/18 11:06:46;;;;;;;15.48;10.10;;;;;;;23.52;71.37;101310.41;5011867;28;20132;-65
2022/08/18 11:09:11;;;;;;;14.60;9.18;;;;;;;23.53;73.36;101303.09;5011767;28;20041;-65
2022/08/18 11:11:42;;;;;;;14.15;10.02;;;;;;;23.60;71.28;101304.44;5011504;28;20038;-66
2022/08/18 11:14:22;;;;;;;16.23;9.65;;;;;;;23.65;72.43;101305.53;5010244;28;20080;-70
2022/08/18 11:16:59;;;;;;;13.77;9.45;;;;;;;23.65;72.32;101302.81;5007309;28;20030;-72
2022/08/18 11:19:24;;;;;;;15.50;9.63;;;;;;;23.52;74.07;101282.38;4990073;28;20026;-71
2022/08/18 11:21:51;;;;;;;16.20;10.07;;;;;;;23.56;72.82;101292.47;5007703;28;20095;-70
2022/08/18 11:24:30;;;;;;;16.60;10.85;;;;;;;23.55;72.71;101288.13;5007636;28;20021;-70
2022/08/18 11:27:03;;;;;;;16.02;10.85;;;;;;;23.50;73.79;101271.78;5007446;28;20076;-71
2022/08/18 11:29:33;;;;;;;16.58;10.50;;;;;;;23.64;70.06;101274.75;5007307;28;20053;-70
2022/08/18 11:32:01;;;;;;;15.00;10.82;;;;;;;23.74;73.80;101258.44;5007506;28;20678;-71
2022/08/18 11:34:33;;;;;;;16.00;10.45;;;;;;;23.75;70.10;101267.41;5006940;28;20029;-70
2022/08/18 11:37:07;;;;;;;13.57;9.32;;;;;;;23.71;70.93;101263.56;5007065;28;20061;-70
2022/08/18 11:39:40;;;;;;;16.02;10.32;;;;;;;23.68;69.54;101261.41;5007211;28;20017;-70
2022/08/18 11:42:08;;;;;;;15.35;10.60;;;;;;;23.76;71.46;101263.59;5006988;28;20049;-68
2022/08/18 11:44:37;;;;;;;14.48;9.52;;;;;;;24.01;73.62;101257.28;5007006;28;20037;-68
2022/08/18 11:47:17;;;;;;;15.35;11.10;;;;;;;24.15;69.29;101249.31;5007067;28;20030;-69
2022/08/18 11:49:55;;;;;;;14.23;9.85;;;;;;;24.28;70.15;101248.72;5006964;28;20029;-64